sensor_id;sensor_type;location;lat;lon;timestamp;pressure;altitude;pressure_sealevel;temperature;humidity
17505;BME280;8870;50.950;11.762;2023-12-14T00:04:23;97460.47;;;6.94;100.00
17505;BME280;8870;50.950;11.762;2023-12-14T00:09:43;97462.50;;;7.00;100.00
17505;BME280;8870;50.950;11.762;2023-12-14T00:15:15;97461.47;;;6.93;100.00
17505;BME280;8870;50.950;11.762;2023-12-14T00:20:33;97462.97;;;6.87;100.00
17505;BME280;8870;50.950;11.762;2023-12-14T00:26:06;97466.81;;;6.85;100.00
17505;BME280;8870;50.950;11.762;2023-12-14T00:31:25;97471.00;;;6.87;100.00
17505;BME280;8870;50.950;11.762;2023-12-14T00:36:56;97466.44;;;6.79;100.00
17505;BME280;8870;50.950;11.762;2023-12-14T00:42:16;97481.00;;;6.77;100.00
17505;BME280;8870;50.950;11.762;2023-12-14T00:47:48;97490.84;;;6.76;100.00
17505;BME280;8870;50.950;11.762;2023-12-14T00:53:06;97491.81;;;6.67;100.00
17505;BME280;8870;50.950;11.762;2023-12-14T00:58:39;97502.00;;;6.63;100.00
17505;BME280;8870;50.950;11.762;2023-12-14T01:03:58;97516.38;;;6.62;100.00
17505;BME280;8870;50.950;11.762;2023-12-14T01:09:30;97524.94;;;6.66;100.00
17505;BME280;8870;50.950;11.762;2023-12-14T01:14:50;97525.28;;;6.63;100.00
17505;BME280;8870;50.950;11.762;2023-12-14T01:20:22;97533.28;;;6.63;100.00
17505;BME280;8870;50.950;11.762;2023-12-14T01:25:40;97538.78;;;6.61;100.00
17505;BME280;8870;50.950;11.762;2023-12-14T01:31:14;97547.97;;;6.59;100.00
17505;BME280;8870;50.950;11.762;2023-12-14T01:36:33;97560.84;;;6.55;100.00
17505;BME280;8870;50.950;11.762;2023-12-14T01:42:04;97567.50;;;6.51;100.00
17505;BME280;8870;50.950;11.762;2023-12-14T01:47:25;97582.09;;;6.57;100.00
17505;BME280;8870;50.950;11.762;2023-12-14T01:52:58;97595.50;;;6.65;100.00
17505;BME280;8870;50.950;11.762;2023-12-14T01:58:16;97605.91;;;6.68;100.00
17505;BME280;8870;50.950;11.762;2023-12-14T02:03:51;97606.56;;;6.62;100.00
17505;BME280;8870;50.950;11.762;2023-12-14T02:09:10;97610.81;;;6.55;100.00
17505;BME280;8870;50.950;11.762;2023-12-14T02:14:41;97610.81;;;6.55;100.00
17505;BME280;8870;50.950;11.762;2023-12-14T02:20:02;97625.41;;;6.60;100.00
17505;BME280;8870;50.950;11.762;2023-12-14T02:25:35;97626.28;;;6.61;100.00
17505;BME280;8870;50.950;11.762;2023-12-14T02:30:54;97641.00;;;6.65;100.00
17505;BME280;8870;50.950;11.762;2023-12-14T02:36:25;97639.66;;;6.61;100.00
17505;BME280;8870;50.950;11.762;2023-12-14T02:41:45;97646.84;;;6.60;100.00
17505;BME280;8870;50.950;11.762;2023-12-14T02:47:17;97650.66;;;6.58;100.00
17505;BME280;8870;50.950;11.762;2023-12-14T02:52:35;97666.88;;;6.56;100.00
17505;BME280;8870;50.950;11.762;2023-12-14T02:58:08;97654.63;;;6.54;100.00
17505;BME280;8870;50.950;11.762;2023-12-14T03:03:27;97664.97;;;6.48;100.00
17505;BME280;8870;50.950;11.762;2023-12-14T03:08:58;97676.59;;;6.39;100.00
17505;BME280;8870;50.950;11.762;2023-12-14T03:14:18;97684.25;;;6.34;100.00
17505;BME280;8870;50.950;11.762;2023-12-14T03:19:50;97693.13;;;6.35;100.00
17505;BME280;8870;50.950;11.762;2023-12-14T03:25:09;97692.50;;;6.23;100.00
17505;BME280;8870;50.950;11.762;2023-12-14T03:30:42;97695.09;;;6.14;100.00
17505;BME280;8870;50.950;11.762;2023-12-14T03:36:01;97705.78;;;6.14;100.00
17505;BME280;8870;50.950;11.762;2023-12-14T03:41:32;97720.72;;;6.07;100.00
17505;BME280;8870;50.950;11.762;2023-12-14T03:47:05;97726.41;;;6.04;100.00
17505;BME280;8870;50.950;11.762;2023-12-14T03:52:24;97722.22;;;5.92;100.00
17505;BME280;8870;50.950;11.762;2023-12-14T03:57:56;97722.28;;;5.72;100.00
17505;BME280;8870;50.950;11.762;2023-12-14T04:03:16;97737.28;;;5.55;100.00
17505;BME280;8870;50.950;11.762;2023-12-14T04:08:41;97741.81;;;5.45;100.00
17505;BME280;8870;50.950;11.762;2023-12-14T04:14:07;97753.22;;;5.37;100.00
17505;BME280;8870;50.950;11.762;2023-12-14T04:19:28;97770.53;;;5.33;100.00
17505;BME280;8870;50.950;11.762;2023-12-14T04:24:59;97781.78;;;5.27;100.00
17505;BME280;8870;50.950;11.762;2023-12-14T04:30:17;97788.81;;;5.18;100.00
17505;BME280;8870;50.950;11.762;2023-12-14T04:35:50;97792.06;;;5.12;100.00
17505;BME280;8870;50.950;11.762;2023-12-14T04:41:09;97807.81;;;5.05;100.00
17505;BME280;8870;50.950;11.762;2023-12-14T04:46:40;97823.13;;;5.03;100.00
17505;BME280;8870;50.950;11.762;2023-12-14T04:52:00;97836.91;;;4.98;100.00
17505;BME280;8870;50.950;11.762;2023-12-14T04:57:32;97839.00;;;4.85;100.00
17505;BME280;8870;50.950;11.762;2023-12-14T05:02:50;97839.69;;;4.77;100.00
17505;BME280;8870;50.950;11.762;2023-12-14T05:08:23;97841.66;;;4.75;100.00
17505;BME280;8870;50.950;11.762;2023-12-14T05:13:43;97858.66;;;4.74;100.00
17505;BME280;8870;50.950;11.762;2023-12-14T05:19:14;97862.16;;;4.74;100.00
17505;BME280;8870;50.950;11.762;2023-12-14T05:24:34;97875.38;;;4.76;100.00
17505;BME280;8870;50.950;11.762;2023-12-14T05:30:07;97899.81;;;4.81;100.00
17505;BME280;8870;50.950;11.762;2023-12-14T05:35:26;97901.78;;;4.79;100.00
17505;BME280;8870;50.950;11.762;2023-12-14T05:41:00;97913.31;;;4.80;100.00
17505;BME280;8870;50.950;11.762;2023-12-14T05:46:32;97920.03;;;4.74;100.00
17505;BME280;8870;50.950;11.762;2023-12-14T05:51:51;97928.31;;;4.71;100.00
17505;BME280;8870;50.950;11.762;2023-12-14T05:57:24;97932.38;;;4.65;100.00
17505;BME280;8870;50.950;11.762;2023-12-14T06:02:43;97958.75;;;4.58;100.00
17505;BME280;8870;50.950;11.762;2023-12-14T06:08:14;97962.25;;;4.59;100.00
17505;BME280;8870;50.950;11.762;2023-12-14T06:13:35;97977.81;;;4.54;100.00
17505;BME280;8870;50.950;11.762;2023-12-14T06:19:06;97982.84;;;4.47;100.00
17505;BME280;8870;50.950;11.762;2023-12-14T06:24:24;97993.19;;;4.40;100.00
17505;BME280;8870;50.950;11.762;2023-12-14T06:29:57;98000.47;;;4.38;100.00
17505;BME280;8870;50.950;11.762;2023-12-14T06:35:16;98013.97;;;4.37;100.00
17505;BME280;8870;50.950;11.762;2023-12-14T06:40:47;98020.00;;;4.39;100.00
17505;BME280;8870;50.950;11.762;2023-12-14T06:46:08;98033.19;;;4.40;100.00
17505;BME280;8870;50.950;11.762;2023-12-14T06:51:39;98040.94;;;4.43;100.00
17505;BME280;8870;50.950;11.762;2023-12-14T06:56:57;98052.44;;;4.44;100.00
17505;BME280;8870;50.950;11.762;2023-12-14T07:02:30;98070.72;;;4.48;100.00
17505;BME280;8870;50.950;11.762;2023-12-14T07:07:49;98076.94;;;4.49;100.00
17505;BME280;8870;50.950;11.762;2023-12-14T07:13:21;98095.34;;;4.52;100.00
17505;BME280;8870;50.950;11.762;2023-12-14T07:18:42;98103.84;;;4.46;100.00
17505;BME280;8870;50.950;11.762;2023-12-14T07:24:13;98117.00;;;4.38;100.00
17505;BME280;8870;50.950;11.762;2023-12-14T07:29:31;98110.88;;;4.26;100.00
17505;BME280;8870;50.950;11.762;2023-12-14T07:35:05;98117.94;;;4.15;100.00
17505;BME280;8870;50.950;11.762;2023-12-14T07:40:24;98137.25;;;4.08;100.00
17505;BME280;8870;50.950;11.762;2023-12-14T07:45:55;98140.53;;;4.00;100.00
17505;BME280;8870;50.950;11.762;2023-12-14T07:51:28;98153.78;;;3.90;100.00
17505;BME280;8870;50.950;11.762;2023-12-14T07:56:47;98159.75;;;3.82;100.00
17505;BME280;8870;50.950;11.762;2023-12-14T08:02:19;98182.16;;;3.80;100.00
17505;BME280;8870;50.950;11.762;2023-12-14T08:07:39;98186.91;;;3.76;100.00
17505;BME280;8870;50.950;11.762;2023-12-14T08:13:14;98198.41;;;3.77;100.00
17505;BME280;8870;50.950;11.762;2023-12-14T08:18:33;98196.69;;;3.76;100.00
17505;BME280;8870;50.950;11.762;2023-12-14T08:24:09;98205.91;;;3.72;100.00
17505;BME280;8870;50.950;11.762;2023-12-14T08:29:28;98209.53;;;3.70;100.00
17505;BME280;8870;50.950;11.762;2023-12-14T08:35:00;98218.38;;;3.71;100.00
17505;BME280;8870;50.950;11.762;2023-12-14T08:40:21;98232.91;;;3.78;100.00
17505;BME280;8870;50.950;11.762;2023-12-14T08:45:53;98245.84;;;3.83;100.00
17505;BME280;8870;50.950;11.762;2023-12-14T08:51:11;98261.84;;;3.83;100.00
17505;BME280;8870;50.950;11.762;2023-12-14T08:56:45;98279.16;;;3.77;100.00
17505;BME280;8870;50.950;11.762;2023-12-14T09:02:04;98279.44;;;3.74;100.00
17505;BME280;8870;50.950;11.762;2023-12-14T09:07:36;98284.63;;;3.76;100.00
17505;BME280;8870;50.950;11.762;2023-12-14T09:12:57;98296.47;;;3.83;100.00
17505;BME280;8870;50.950;11.762;2023-12-14T09:18:29;98310.66;;;3.83;100.00
17505;BME280;8870;50.950;11.762;2023-12-14T09:23:47;98319.78;;;3.81;100.00
17505;BME280;8870;50.950;11.762;2023-12-14T09:29:20;98326.53;;;3.74;100.00
17505;BME280;8870;50.950;11.762;2023-12-14T09:34:40;98339.13;;;3.72;100.00
17505;BME280;8870;50.950;11.762;2023-12-14T09:40:14;98333.47;;;3.76;100.00
17505;BME280;8870;50.950;11.762;2023-12-14T09:45:44;98336.22;;;3.75;100.00
17505;BME280;8870;50.950;11.762;2023-12-14T09:51:17;98353.91;;;3.76;100.00
17505;BME280;8870;50.950;11.762;2023-12-14T09:56:35;98352.94;;;3.77;100.00
17505;BME280;8870;50.950;11.762;2023-12-14T10:02:20;98363.47;;;3.78;100.00
17505;BME280;8870;50.950;11.762;2023-12-14T10:07:42;98369.75;;;3.77;100.00
17505;BME280;8870;50.950;11.762;2023-12-14T10:13:14;98375.97;;;3.78;100.00
17505;BME280;8870;50.950;11.762;2023-12-14T10:18:36;98384.44;;;3.83;100.00
17505;BME280;8870;50.950;11.762;2023-12-14T10:24:07;98394.75;;;3.88;100.00
17505;BME280;8870;50.950;11.762;2023-12-14T10:29:28;98405.28;;;3.89;100.00
17505;BME280;8870;50.950;11.762;2023-12-14T10:35:02;98404.78;;;3.84;100.00
17505;BME280;8870;50.950;11.762;2023-12-14T10:40:23;98409.88;;;3.76;100.00
17505;BME280;8870;50.950;11.762;2023-12-14T10:45:56;98410.09;;;3.73;100.00
17505;BME280;8870;50.950;11.762;2023-12-14T10:51:30;98415.69;;;3.69;100.00
17505;BME280;8870;50.950;11.762;2023-12-14T10:56:48;98407.69;;;3.69;100.00
17505;BME280;8870;50.950;11.762;2023-12-14T11:02:20;98424.34;;;3.60;100.00
17505;BME280;8870;50.950;11.762;2023-12-14T11:07:49;98426.31;;;3.58;100.00
17505;BME280;8870;50.950;11.762;2023-12-14T11:13:23;98440.59;;;3.57;100.00
17505;BME280;8870;50.950;11.762;2023-12-14T11:18:42;98451.97;;;3.59;100.00
17505;BME280;8870;50.950;11.762;2023-12-14T11:24:17;98462.38;;;3.62;100.00
17505;BME280;8870;50.950;11.762;2023-12-14T11:29:38;98466.50;;;3.55;100.00
17505;BME280;8870;50.950;11.762;2023-12-14T11:35:09;98473.13;;;3.49;100.00
17505;BME280;8870;50.950;11.762;2023-12-14T11:40:30;98478.06;;;3.43;100.00
17505;BME280;8870;50.950;11.762;2023-12-14T11:46:01;98476.59;;;3.38;100.00
17505;BME280;8870;50.950;11.762;2023-12-14T11:51:33;98490.25;;;3.34;100.00
17505;BME280;8870;50.950;11.762;2023-12-14T11:56:55;98507.81;;;3.36;100.00
17505;BME280;8870;50.950;11.762;2023-12-14T12:02:26;98501.63;;;3.36;100.00
17505;BME280;8870;50.950;11.762;2023-12-14T12:07:44;98515.13;;;3.46;100.00
17505;BME280;8870;50.950;11.762;2023-12-14T12:13:19;98512.13;;;3.50;100.00
17505;BME280;8870;50.950;11.762;2023-12-14T12:18:37;98515.28;;;3.55;100.00
17505;BME280;8870;50.950;11.762;2023-12-14T12:24:08;98525.72;;;3.59;100.00
17505;BME280;8870;50.950;11.762;2023-12-14T12:29:37;98531.88;;;3.59;100.00
17505;BME280;8870;50.950;11.762;2023-12-14T12:35:08;98539.16;;;3.57;100.00
17505;BME280;8870;50.950;11.762;2023-12-14T12:40:26;98535.06;;;3.64;100.00
17505;BME280;8870;50.950;11.762;2023-12-14T12:45:59;98549.75;;;3.70;100.00
17505;BME280;8870;50.950;11.762;2023-12-14T12:51:31;98549.22;;;3.65;100.00
17505;BME280;8870;50.950;11.762;2023-12-14T12:56:50;98551.13;;;3.51;100.00
17505;BME280;8870;50.950;11.762;2023-12-14T13:02:23;98555.72;;;3.49;100.00
17505;BME280;8870;50.950;11.762;2023-12-14T13:07:44;98564.78;;;3.47;100.00
17505;BME280;8870;50.950;11.762;2023-12-14T13:13:16;98570.31;;;3.44;100.00
17505;BME280;8870;50.950;11.762;2023-12-14T13:18:37;98578.31;;;3.44;100.00
17505;BME280;8870;50.950;11.762;2023-12-14T13:24:09;98580.44;;;3.38;100.00
17505;BME280;8870;50.950;11.762;2023-12-14T13:29:27;98588.66;;;3.35;100.00
17505;BME280;8870;50.950;11.762;2023-12-14T13:35:01;98594.09;;;3.34;100.00
17505;BME280;8870;50.950;11.762;2023-12-14T13:40:19;98607.63;;;3.31;100.00
17505;BME280;8870;50.950;11.762;2023-12-14T13:45:50;98617.56;;;3.29;100.00
17505;BME280;8870;50.950;11.762;2023-12-14T13:51:30;98634.72;;;3.24;100.00
17505;BME280;8870;50.950;11.762;2023-12-14T13:57:01;98652.72;;;3.21;100.00
17505;BME280;8870;50.950;11.762;2023-12-14T14:02:19;98660.91;;;3.18;100.00
17505;BME280;8870;50.950;11.762;2023-12-14T14:07:53;98677.09;;;3.15;100.00
17505;BME280;8870;50.950;11.762;2023-12-14T14:13:11;98673.94;;;3.10;100.00
17505;BME280;8870;50.950;11.762;2023-12-14T14:18:43;98691.59;;;3.11;100.00
17505;BME280;8870;50.950;11.762;2023-12-14T14:24:04;98704.06;;;3.10;100.00
17505;BME280;8870;50.950;11.762;2023-12-14T14:29:35;98716.28;;;3.13;100.00
17505;BME280;8870;50.950;11.762;2023-12-14T14:34:53;98725.25;;;3.12;100.00
17505;BME280;8870;50.950;11.762;2023-12-14T14:40:27;98736.75;;;3.12;100.00
17505;BME280;8870;50.950;11.762;2023-12-14T14:45:45;98743.91;;;3.12;100.00
17505;BME280;8870;50.950;11.762;2023-12-14T14:51:16;98755.06;;;3.17;100.00
17505;BME280;8870;50.950;11.762;2023-12-14T14:56:37;98755.81;;;3.19;100.00
17505;BME280;8870;50.950;11.762;2023-12-14T15:02:08;98761.78;;;3.22;100.00
17505;BME280;8870;50.950;11.762;2023-12-14T15:07:26;98782.25;;;3.22;100.00
17505;BME280;8870;50.950;11.762;2023-12-14T15:13:00;98785.09;;;3.19;100.00
17505;BME280;8870;50.950;11.762;2023-12-14T15:18:18;98792.13;;;3.20;100.00
17505;BME280;8870;50.950;11.762;2023-12-14T15:23:49;98802.59;;;3.23;100.00
17505;BME280;8870;50.950;11.762;2023-12-14T15:29:17;98811.53;;;3.22;100.00
17505;BME280;8870;50.950;11.762;2023-12-14T15:34:48;98815.91;;;3.23;100.00
17505;BME280;8870;50.950;11.762;2023-12-14T15:40:08;98822.19;;;3.22;100.00
17505;BME280;8870;50.950;11.762;2023-12-14T15:45:43;98831.00;;;3.22;100.00
17505;BME280;8870;50.950;11.762;2023-12-14T15:51:02;98839.00;;;3.22;100.00
17505;BME280;8870;50.950;11.762;2023-12-14T15:56:34;98856.56;;;3.25;100.00
17505;BME280;8870;50.950;11.762;2023-12-14T16:01:55;98862.84;;;3.24;100.00
17505;BME280;8870;50.950;11.762;2023-12-14T16:07:26;98884.38;;;3.21;100.00
17505;BME280;8870;50.950;11.762;2023-12-14T16:12:44;98895.03;;;3.21;100.00
17505;BME280;8870;50.950;11.762;2023-12-14T16:18:18;98900.53;;;3.18;100.00
17505;BME280;8870;50.950;11.762;2023-12-14T16:23:37;98909.03;;;3.10;100.00
17505;BME280;8870;50.950;11.762;2023-12-14T16:29:08;98912.22;;;3.02;100.00
17505;BME280;8870;50.950;11.762;2023-12-14T16:34:30;98920.81;;;2.93;100.00
17505;BME280;8870;50.950;11.762;2023-12-14T16:40:01;98932.59;;;2.89;100.00
17505;BME280;8870;50.950;11.762;2023-12-14T16:45:19;98941.09;;;2.81;100.00
17505;BME280;8870;50.950;11.762;2023-12-14T16:50:53;98945.72;;;2.77;100.00
17505;BME280;8870;50.950;11.762;2023-12-14T16:56:11;98947.66;;;2.75;100.00
17505;BME280;8870;50.950;11.762;2023-12-14T17:01:42;98967.44;;;2.71;100.00
17505;BME280;8870;50.950;11.762;2023-12-14T17:07:03;98971.03;;;2.70;100.00
17505;BME280;8870;50.950;11.762;2023-12-14T17:12:34;98982.81;;;2.66;100.00
17505;BME280;8870;50.950;11.762;2023-12-14T17:17:52;98985.28;;;2.69;100.00
17505;BME280;8870;50.950;11.762;2023-12-14T17:23:26;98995.09;;;2.69;100.00
17505;BME280;8870;50.950;11.762;2023-12-14T17:28:45;99010.00;;;2.71;100.00
17505;BME280;8870;50.950;11.762;2023-12-14T17:34:16;99031.19;;;2.73;100.00
17505;BME280;8870;50.950;11.762;2023-12-14T17:39:38;99033.94;;;2.71;100.00
17505;BME280;8870;50.950;11.762;2023-12-14T17:45:11;99036.03;;;2.66;100.00
17505;BME280;8870;50.950;11.762;2023-12-14T17:50:42;99038.03;;;2.62;100.00
17505;BME280;8870;50.950;11.762;2023-12-14T17:56:05;99031.75;;;2.64;100.00
17505;BME280;8870;50.950;11.762;2023-12-14T18:01:42;99042.28;;;2.65;100.00
17505;BME280;8870;50.950;11.762;2023-12-14T18:07:00;99047.84;;;2.62;100.00
17505;BME280;8870;50.950;11.762;2023-12-14T18:12:34;99047.91;;;2.60;100.00
17505;BME280;8870;50.950;11.762;2023-12-14T18:17:53;99049.53;;;2.63;100.00
17505;BME280;8870;50.950;11.762;2023-12-14T18:23:25;99058.25;;;2.65;100.00
17505;BME280;8870;50.950;11.762;2023-12-14T18:28:59;99069.13;;;2.62;100.00
17505;BME280;8870;50.950;11.762;2023-12-14T18:34:17;99075.28;;;2.62;100.00
17505;BME280;8870;50.950;11.762;2023-12-14T18:39:49;99089.53;;;2.61;100.00
17505;BME280;8870;50.950;11.762;2023-12-14T18:45:17;99104.06;;;2.56;100.00
17505;BME280;8870;50.950;11.762;2023-12-14T18:50:49;99102.56;;;2.52;100.00
17505;BME280;8870;50.950;11.762;2023-12-14T18:56:11;99122.88;;;2.53;100.00
17505;BME280;8870;50.950;11.762;2023-12-14T19:01:50;99127.16;;;2.55;100.00
17505;BME280;8870;50.950;11.762;2023-12-14T19:07:09;99148.44;;;2.55;100.00
17505;BME280;8870;50.950;11.762;2023-12-14T19:12:43;99150.22;;;2.55;100.00
17505;BME280;8870;50.950;11.762;2023-12-14T19:18:10;99163.53;;;2.55;100.00
17505;BME280;8870;50.950;11.762;2023-12-14T19:23:43;99180.34;;;2.55;100.00
17505;BME280;8870;50.950;11.762;2023-12-14T19:29:04;99182.91;;;2.57;100.00
17505;BME280;8870;50.950;11.762;2023-12-14T19:34:38;99192.72;;;2.56;100.00
17505;BME280;8870;50.950;11.762;2023-12-14T19:40:12;99193.72;;;2.54;100.00
17505;BME280;8870;50.950;11.762;2023-12-14T19:45:45;99209.03;;;2.50;100.00
17505;BME280;8870;50.950;11.762;2023-12-14T19:51:06;99228.41;;;2.52;100.00
17505;BME280;8870;50.950;11.762;2023-12-14T19:56:43;99228.25;;;2.55;100.00
17505;BME280;8870;50.950;11.762;2023-12-14T20:02:03;99246.75;;;2.57;100.00
17505;BME280;8870;50.950;11.762;2023-12-14T20:07:41;99243.16;;;2.58;100.00
17505;BME280;8870;50.950;11.762;2023-12-14T20:12:59;99245.03;;;2.56;100.00
17505;BME280;8870;50.950;11.762;2023-12-14T20:18:34;99252.09;;;2.57;100.00
17505;BME280;8870;50.950;11.762;2023-12-14T20:23:56;99257.41;;;2.57;100.00
17505;BME280;8870;50.950;11.762;2023-12-14T20:29:30;99263.66;;;2.56;100.00
17505;BME280;8870;50.950;11.762;2023-12-14T20:34:48;99268.03;;;2.57;100.00
17505;BME280;8870;50.950;11.762;2023-12-14T20:40:22;99275.19;;;2.56;100.00
17505;BME280;8870;50.950;11.762;2023-12-14T20:45:43;99286.66;;;2.57;100.00
17505;BME280;8870;50.950;11.762;2023-12-14T20:51:15;99295.53;;;2.57;100.00
17505;BME280;8870;50.950;11.762;2023-12-14T20:56:37;99301.78;;;2.56;100.00
17505;BME280;8870;50.950;11.762;2023-12-14T21:02:08;99307.09;;;2.56;100.00
17505;BME280;8870;50.950;11.762;2023-12-14T21:07:27;99320.31;;;2.58;100.00
17505;BME280;8870;50.950;11.762;2023-12-14T21:13:10;99315.75;;;2.60;100.00
17505;BME280;8870;50.950;11.762;2023-12-14T21:18:29;99330.25;;;2.70;100.00
17505;BME280;8870;50.950;11.762;2023-12-14T21:24:01;99339.06;;;2.71;100.00
17505;BME280;8870;50.950;11.762;2023-12-14T21:29:24;99355.91;;;2.71;100.00
17505;BME280;8870;50.950;11.762;2023-12-14T21:34:58;99347.75;;;2.74;100.00
17505;BME280;8870;50.950;11.762;2023-12-14T21:40:16;99355.38;;;2.81;100.00
17505;BME280;8870;50.950;11.762;2023-12-14T21:45:50;99374.94;;;2.80;100.00
17505;BME280;8870;50.950;11.762;2023-12-14T21:51:08;99364.13;;;2.83;100.00
17505;BME280;8870;50.950;11.762;2023-12-14T21:56:39;99371.84;;;2.87;100.00
17505;BME280;8870;50.950;11.762;2023-12-14T22:02:00;99374.41;;;2.89;100.00
17505;BME280;8870;50.950;11.762;2023-12-14T22:07:32;99380.56;;;3.05;100.00
17505;BME280;8870;50.950;11.762;2023-12-14T22:12:51;99397.44;;;3.20;100.00
17505;BME280;8870;50.950;11.762;2023-12-14T22:18:25;99402.16;;;3.31;100.00
17505;BME280;8870;50.950;11.762;2023-12-14T22:23:43;99412.41;;;3.37;100.00
17505;BME280;8870;50.950;11.762;2023-12-14T22:29:14;99424.44;;;3.45;100.00
17505;BME280;8870;50.950;11.762;2023-12-14T22:34:35;99435.66;;;3.50;100.00
17505;BME280;8870;50.950;11.762;2023-12-14T22:40:07;99437.13;;;3.55;100.00
17505;BME280;8870;50.950;11.762;2023-12-14T22:45:33;99444.75;;;3.62;100.00
17505;BME280;8870;50.950;11.762;2023-12-14T22:51:14;99455.13;;;3.66;100.00
17505;BME280;8870;50.950;11.762;2023-12-14T22:56:33;99464.56;;;3.72;100.00
17505;BME280;8870;50.950;11.762;2023-12-14T23:02:04;99462.84;;;3.71;100.00
17505;BME280;8870;50.950;11.762;2023-12-14T23:07:25;99474.75;;;3.65;100.00
17505;BME280;8870;50.950;11.762;2023-12-14T23:12:56;99475.69;;;3.64;100.00
17505;BME280;8870;50.950;11.762;2023-12-14T23:18:14;99477.56;;;3.62;100.00
17505;BME280;8870;50.950;11.762;2023-12-14T23:23:48;99478.78;;;3.57;100.00
17505;BME280;8870;50.950;11.762;2023-12-14T23:29:06;99489.16;;;3.47;100.00
17505;BME280;8870;50.950;11.762;2023-12-14T23:34:37;99494.16;;;3.37;100.00
17505;BME280;8870;50.950;11.762;2023-12-14T23:39:58;99502.59;;;3.29;100.00
17505;BME280;8870;50.950;11.762;2023-12-14T23:45:29;99508.69;;;3.31;100.00
17505;BME280;8870;50.950;11.762;2023-12-14T23:50:47;99513.34;;;3.28;100.00
17505;BME280;8870;50.950;11.762;2023-12-14T23:56:21;99524.66;;;3.31;100.00
